Time;durP1;ratioP1;P1;durP2;ratioP2;P2;SDS_P1;SDS_P2;PMS_P1;PMS_P2;Temp;Humidity;BMP_temperature;BMP_pressure;BME280_temperature;BME280_humidity;BME280_pressure;Samples;Min_cycle;Max_cycle;Signal;HPM_P1;HPM_P2
2020/12/03 00:01:05;;;;;;;50.03;22.42;;;;;;;-0.61;74.87;102212.38;1729421;80;21049;-78
2020/12/03 00:03:50;;;;;;;66.53;27.37;;;;;;;-0.62;74.95;102205.51;1728561;79;20981;-78
2020/12/03 00:06:30;;;;;;;56.30;26.20;;;;;;;-0.62;75.11;102204.22;1728267;81;20923;-77
2020/12/03 00:09:12;;;;;;;49.18;23.18;;;;;;;-0.60;75.09;102205.11;1753127;81;20978;-77
2020/12/03 00:11:45;;;;;;;45.38;23.45;;;;;;;-0.59;75.14;102196.52;1753039;79;21001;-77
2020/12/03 00:14:13;;;;;;;53.02;27.48;;;;;;;-0.59;75.26;102193.09;1728173;80;20961;-76
2020/12/03 00:16:41;;;;;;;53.95;26.20;;;;;;;-0.57;75.33;102201.27;1728878;80;21061;-77
2020/12/03 00:19:12;;;;;;;52.40;25.65;;;;;;;-0.52;75.09;102197.45;1728745;81;20969;-77
2020/12/03 00:21:51;;;;;;;37.78;19.15;;;;;;;-0.53;75.01;102193.16;1743411;81;21025;-77
2020/12/03 00:24:25;;;;;;;43.73;21.85;;;;;;;-0.54;74.89;102200.00;1743177;79;21183;-74
2020/12/03 00:26:53;;;;;;;42.38;22.00;;;;;;;-0.59;74.91;102204.25;1721542;81;20948;-74
2020/12/03 00:29:22;;;;;;;45.83;24.27;;;;;;;-0.63;74.93;102198.18;1721818;81;21039;-73
2020/12/03 00:31:52;;;;;;;48.48;23.87;;;;;;;-0.65;75.01;102201.16;1721891;82;20945;-74
2020/12/03 00:34:20;;;;;;;48.20;23.27;;;;;;;-0.62;75.08;102193.92;1721479;82;21023;-73
2020/12/03 00:36:47;;;;;;;40.88;22.45;;;;;;;-0.58;75.09;102199.95;1721490;82;21182;-73
2020/12/03 00:39:15;;;;;;;40.48;20.35;;;;;;;-0.57;74.82;102201.70;1721473;82;21000;-74
2020/12/03 00:41:53;;;;;;;38.08;19.30;;;;;;;-0.58;74.78;102194.80;1721432;82;21442;-73
2020/12/03 00:44:23;;;;;;;50.60;22.65;;;;;;;-0.58;74.85;102203.81;1721418;82;20984;-74
2020/12/03 00:46:52;;;;;;;42.10;18.65;;;;;;;-0.56;74.68;102207.27;1721480;82;21418;-74
2020/12/03 00:49:21;;;;;;;40.65;19.80;;;;;;;-0.56;74.58;102212.00;1721650;82;22245;-73
2020/12/03 00:51:51;;;;;;;42.75;19.25;;;;;;;-0.54;74.51;102208.16;1721431;82;20968;-73
2020/12/03 00:54:20;;;;;;;47.48;22.80;;;;;;;-0.54;74.50;102205.59;1721282;82;20920;-73
2020/12/03 00:56:51;;;;;;;34.65;18.10;;;;;;;-0.53;74.53;102199.17;1721465;82;21102;-73
2020/12/03 00:59:21;;;;;;;34.58;19.30;;;;;;;-0.50;74.46;102208.21;1721549;82;21498;-72
2020/12/03 01:01:49;;;;;;;30.55;17.10;;;;;;;-0.50;74.42;102206.06;1721511;82;22347;-73
2020/12/03 01:04:17;;;;;;;25.70;13.78;;;;;;;-0.46;74.38;102213.84;1721415;82;21453;-72
2020/12/03 01:06:46;;;;;;;21.05;14.07;;;;;;;-0.43;73.67;102206.14;1721420;82;21440;-72
2020/12/03 01:09:14;;;;;;;27.25;13.58;;;;;;;-0.47;73.47;102195.38;1721439;82;20960;-73
2020/12/03 01:11:41;;;;;;;27.35;15.93;;;;;;;-0.47;73.61;102191.91;1721415;82;20979;-73
2020/12/03 01:14:09;;;;;;;20.08;12.35;;;;;;;-0.46;73.44;102192.37;1721500;82;22177;-74
2020/12/03 01:16:37;;;;;;;21.02;12.65;;;;;;;-0.43;73.43;102193.25;1721528;82;20991;-74
2020/12/03 01:19:06;;;;;;;21.65;12.30;;;;;;;-0.42;73.15;102191.56;1721443;82;21035;-74
2020/12/03 01:21:33;;;;;;;19.82;12.47;;;;;;;-0.42;72.98;102188.56;1721394;82;20967;-73
2020/12/03 01:24:01;;;;;;;16.40;9.08;;;;;;;-0.43;73.11;102197.12;1713981;82;21109;-73
2020/12/03 01:26:30;;;;;;;19.25;12.28;;;;;;;-0.40;72.83;102198.00;1688277;81;21276;-79
2020/12/03 01:28:59;;;;;;;19.45;11.53;;;;;;;-0.42;72.92;102200.58;1702763;82;21068;-81
2020/12/03 01:31:31;;;;;;;23.50;12.65;;;;;;;-0.40;72.99;102204.45;1679246;84;21088;-80
2020/12/03 01:34:00;;;;;;;19.10;12.33;;;;;;;-0.40;72.99;102194.14;1679006;83;21018;-82
2020/12/03 01:36:28;;;;;;;26.17;13.18;;;;;;;-0.36;72.86;102195.91;1679170;84;20999;-80
2020/12/03 01:38:56;;;;;;;18.65;11.80;;;;;;;-0.35;72.93;102192.50;1679178;84;21203;-81
2020/12/03 01:41:25;;;;;;;19.52;12.88;;;;;;;-0.32;72.79;102192.52;1679177;84;20954;-79
2020/12/03 01:43:53;;;;;;;21.33;12.47;;;;;;;-0.33;72.78;102202.40;1679268;84;20989;-78
2020/12/03 01:46:21;;;;;;;15.55;10.78;;;;;;;-0.33;72.73;102198.53;1679310;84;21045;-81
2020/12/03 01:48:56;;;;;;;22.52;12.68;;;;;;;-0.35;72.78;102193.78;1679509;84;21490;-80
2020/12/03 01:51:36;;;;;;;21.40;11.80;;;;;;;-0.36;72.92;102190.75;1707580;82;21112;-79
2020/12/03 01:54:10;;;;;;;21.60;13.50;;;;;;;-0.36;72.96;102189.46;1679222;83;20981;-82
2020/12/03 01:56:52;;;;;;;20.20;13.32;;;;;;;-0.38;73.02;102186.00;1679427;84;21069;-79
2020/12/03 01:59:22;;;;;;;20.00;12.00;;;;;;;-0.37;73.17;102180.88;1679395;83;21104;-80
2020/12/03 02:01:53;;;;;;;24.67;14.05;;;;;;;-0.34;73.08;102190.34;1679072;84;20957;-78
2020/12/03 02:05:58;;;;;;;24.30;13.75;;;;;;;-0.30;72.97;102185.23;1845570;76;22605;-79
2020/12/03 02:08:28;;;;;;;20.15;13.60;;;;;;;-0.36;72.97;102191.61;1823201;77;20985;-79
2020/12/03 02:10:56;;;;;;;28.42;15.72;;;;;;;-0.37;73.05;102192.90;1755848;80;22000;-78
2020/12/03 02:13:24;;;;;;;28.35;15.83;;;;;;;-0.38;73.05;102192.02;1758974;80;21426;-77
2020/12/03 02:15:55;;;;;;;31.33;15.63;;;;;;;-0.38;73.20;102192.45;1758935;80;21491;-77
2020/12/03 02:18:23;;;;;;;25.50;15.23;;;;;;;-0.35;73.30;102189.92;1759027;80;20942;-77
2020/12/03 02:20:52;;;;;;;28.17;16.48;;;;;;;-0.31;73.15;102191.65;1790503;80;20954;-79
2020/12/03 02:23:21;;;;;;;40.28;16.27;;;;;;;-0.28;73.18;102192.56;1759129;80;21097;-78
2020/12/03 02:25:49;;;;;;;27.20;16.65;;;;;;;-0.25;73.07;102191.29;1786771;79;20955;-76
2020/12/03 02:28:18;;;;;;;27.37;15.88;;;;;;;-0.24;73.07;102190.89;1771639;78;21191;-73
2020/12/03 02:30:46;;;;;;;27.60;15.93;;;;;;;-0.23;72.92;102197.77;1684880;82;21678;-74
2020/12/03 02:33:15;;;;;;;28.95;16.85;;;;;;;-0.27;73.06;102198.17;1685036;83;20959;-74
2020/12/03 02:35:43;;;;;;;26.33;14.70;;;;;;;-0.27;73.08;102188.27;1684999;83;20981;-73
2020/12/03 02:38:11;;;;;;;30.02;15.68;;;;;;;-0.29;73.08;102193.42;1684777;83;21077;-74
2020/12/03 02:40:39;;;;;;;31.42;15.48;;;;;;;-0.29;72.95;102190.84;1684927;83;21026;-73
2020/12/03 02:43:07;;;;;;;27.10;13.20;;;;;;;-0.30;73.00;102187.81;1684726;83;21010;-73
2020/12/03 02:45:35;;;;;;;24.92;13.80;;;;;;;-0.29;72.77;102185.69;1684917;83;20915;-74
2020/12/03 02:48:03;;;;;;;26.93;14.85;;;;;;;-0.31;72.85;102187.78;1684964;83;21167;-73
2020/12/03 02:50:32;;;;;;;25.45;14.38;;;;;;;-0.31;72.88;102188.67;1684833;83;21508;-73
2020/12/03 02:53:00;;;;;;;29.00;14.75;;;;;;;-0.28;72.90;102182.68;1684957;83;21487;-73
2020/12/03 02:55:28;;;;;;;22.58;14.03;;;;;;;-0.26;72.64;102182.28;1684862;83;21030;-73
2020/12/03 02:57:56;;;;;;;27.73;14.98;;;;;;;-0.26;72.55;102188.72;1684930;83;20919;-74
2020/12/03 03:00:24;;;;;;;26.82;14.15;;;;;;;-0.29;72.55;102184.41;1684819;83;21238;-73
2020/12/03 03:02:52;;;;;;;24.05;12.00;;;;;;;-0.28;72.66;102175.80;1684896;83;20974;-73
2020/12/03 03:05:20;;;;;;;19.67;11.97;;;;;;;-0.26;72.38;102170.67;1685021;83;21113;-75
2020/12/03 03:07:48;;;;;;;18.25;11.30;;;;;;;-0.25;72.34;102164.22;1684927;83;21484;-74
2020/12/03 03:10:21;;;;;;;19.15;10.70;;;;;;;-0.25;72.17;102164.22;1685059;83;21034;-74
2020/12/03 03:12:47;;;;;;;22.70;11.50;;;;;;;-0.23;72.07;102166.83;1684755;83;21934;-73
2020/12/03 03:15:17;;;;;;;20.68;12.58;;;;;;;-0.26;72.10;102169.39;1684920;83;20943;-73
2020/12/03 03:17:46;;;;;;;19.05;11.43;;;;;;;-0.24;72.14;102168.98;1684414;83;20962;-74
2020/12/03 03:20:14;;;;;;;19.77;12.07;;;;;;;-0.27;72.27;102177.95;1684334;83;20951;-75
2020/12/03 03:22:42;;;;;;;23.02;12.40;;;;;;;-0.25;72.30;102180.98;1684309;83;20952;-74
2020/12/03 03:25:10;;;;;;;20.82;12.28;;;;;;;-0.23;72.35;102190.02;1684481;83;21968;-73
2020/12/03 03:27:39;;;;;;;21.75;12.90;;;;;;;-0.24;72.36;102189.17;1684290;83;21097;-74
2020/12/03 03:30:08;;;;;;;26.23;13.85;;;;;;;-0.22;72.42;102191.34;1689220;83;20991;-73
2020/12/03 03:32:41;;;;;;;26.20;14.53;;;;;;;-0.21;72.49;102193.48;1734887;80;20962;-78
2020/12/03 03:35:09;;;;;;;22.37;14.53;;;;;;;-0.19;72.52;102184.05;1750008;81;21061;-78
2020/12/03 03:37:37;;;;;;;28.92;15.98;;;;;;;-0.16;72.52;102189.23;1749965;81;20980;-76
2020/12/03 03:40:05;;;;;;;32.20;17.73;;;;;;;-0.11;72.56;102186.30;1749873;81;21538;-78
2020/12/03 03:42:33;;;;;;;23.95;15.58;;;;;;;-0.06;72.42;102184.61;1750032;81;21388;-78
2020/12/03 03:45:03;;;;;;;29.02;17.15;;;;;;;-0.03;72.45;102179.47;1749851;81;21017;-79
2020/12/03 03:47:32;;;;;;;26.97;16.30;;;;;;;0.00;72.40;102185.11;1749992;81;21018;-79
2020/12/03 03:50:00;;;;;;;24.92;15.15;;;;;;;0.07;72.47;102180.84;1749932;81;21851;-79
2020/12/03 03:52:28;;;;;;;27.17;15.32;;;;;;;0.07;72.41;102179.55;1750373;80;20958;-78
2020/12/03 03:54:57;;;;;;;23.75;15.60;;;;;;;0.07;72.51;102179.14;1739525;81;20968;-79
2020/12/03 03:57:25;;;;;;;30.62;16.70;;;;;;;0.04;72.56;102175.23;1730009;81;21323;-78
2020/12/03 03:59:53;;;;;;;30.90;16.67;;;;;;;0.04;72.60;102178.24;1739560;81;21071;-78
2020/12/03 04:02:22;;;;;;;26.42;16.50;;;;;;;-0.01;72.82;102170.03;1730092;81;22156;-78
2020/12/03 04:04:52;;;;;;;31.75;16.35;;;;;;;0.05;72.92;102173.54;1739560;81;21039;-79
2020/12/03 04:07:20;;;;;;;28.47;16.93;;;;;;;0.11;73.44;102174.45;1730159;81;21498;-78
2020/12/03 04:09:49;;;;;;;26.62;16.25;;;;;;;0.17;73.14;102178.35;1739739;81;21067;-79
2020/12/03 04:12:18;;;;;;;30.92;16.82;;;;;;;0.23;72.95;102183.14;1729936;81;20962;-80
2020/12/03 04:14:46;;;;;;;27.40;15.45;;;;;;;0.24;72.71;102179.70;1739685;81;21975;-79
2020/12/03 04:17:14;;;;;;;25.52;14.73;;;;;;;0.22;72.80;102186.56;1729865;81;20949;-80
2020/12/03 04:19:43;;;;;;;30.08;15.75;;;;;;;0.20;72.79;102182.67;1739576;81;21087;-81
2020/12/03 04:22:11;;;;;;;28.12;17.48;;;;;;;0.19;72.89;102183.09;1729879;81;20993;-80
2020/12/03 04:24:39;;;;;;;32.10;18.62;;;;;;;0.18;72.94;102181.82;1739482;81;21059;-79
2020/12/03 04:27:07;;;;;;;36.35;18.35;;;;;;;0.16;73.12;102179.22;1730034;81;21963;-80
2020/12/03 04:29:35;;;;;;;30.72;16.60;;;;;;;0.13;73.30;102180.89;1739533;81;20932;-79
2020/12/03 04:32:03;;;;;;;31.95;16.48;;;;;;;0.11;73.45;102185.17;1715151;83;21014;-79
2020/12/03 04:34:31;;;;;;;33.00;16.23;;;;;;;0.08;73.64;102190.32;1761891;80;20950;-79
2020/12/03 04:36:59;;;;;;;30.90;17.77;;;;;;;0.07;73.76;102191.16;1761782;80;21025;-80
2020/12/03 04:39:29;;;;;;;32.00;18.40;;;;;;;0.07;73.84;102189.86;1761863;80;22064;-79
2020/12/03 04:41:59;;;;;;;30.70;16.30;;;;;;;0.04;73.99;102198.88;1761700;80;20953;-79
2020/12/03 04:44:30;;;;;;;31.40;15.88;;;;;;;0.00;74.15;102203.16;1713445;80;20954;-78
2020/12/03 04:47:28;;;;;;;29.30;15.78;;;;;;;-0.03;74.25;102184.62;1761887;80;20961;-78
2020/12/03 04:50:13;;;;;;;28.35;15.93;;;;;;;-0.04;74.40;102195.80;1761775;78;20954;-79
2020/12/03 04:53:05;;;;;;;31.20;16.77;;;;;;;-0.04;74.46;102193.66;1761750;80;21787;-78
2020/12/03 04:56:00;;;;;;;36.75;19.10;;;;;;;-0.07;74.54;102201.34;1761645;80;21013;-79
2020/12/03 04:58:45;;;;;;;30.20;16.47;;;;;;;-0.06;74.71;102200.52;1737142;80;20983;-79
2020/12/03 05:02:01;;;;;;;37.58;17.77;;;;;;;-0.01;74.73;102210.01;1761838;80;21203;-78
2020/12/03 05:04:55;;;;;;;33.80;19.02;;;;;;;0.03;74.76;102206.19;1761634;80;21045;-79
2020/12/03 05:07:27;;;;;;;33.70;17.55;;;;;;;0.07;74.70;102204.05;1762028;80;21958;-78
2020/12/03 05:10:06;;;;;;;34.83;18.17;;;;;;;0.04;74.76;102201.02;1761928;80;21403;-78
2020/12/03 05:12:39;;;;;;;37.88;19.52;;;;;;;0.03;74.75;102201.03;1761306;80;20922;-78
2020/12/03 05:15:20;;;;;;;39.30;19.12;;;;;;;0.01;74.85;102188.11;1761673;80;21590;-77
2020/12/03 05:18:08;;;;;;;33.30;17.10;;;;;;;0.00;74.98;102190.27;1760015;80;20932;-78
2020/12/03 05:20:52;;;;;;;31.80;16.90;;;;;;;0.02;75.05;102191.55;1761711;80;21099;-80
2020/12/03 05:23:27;;;;;;;43.10;19.30;;;;;;;-0.03;75.20;102188.50;1761412;80;21064;-77
2020/12/03 05:25:56;;;;;;;36.35;16.82;;;;;;;-0.01;75.33;102189.81;1759612;80;20954;-77
2020/12/03 05:28:48;;;;;;;34.20;16.27;;;;;;;-0.01;75.45;102190.66;1761537;80;20942;-77
2020/12/03 05:31:33;;;;;;;32.35;14.80;;;;;;;-0.02;75.61;102190.24;1761656;80;20966;-78
2020/12/03 05:34:12;;;;;;;;;;;;;;;-0.06;75.86;102196.65;1764139;80;21037;-77
2020/12/03 05:37:01;;;;;;;32.65;15.40;;;;;;;-0.10;76.10;102189.30;1753628;79;20278;-88
2020/12/03 05:39:45;;;;;;;33.00;17.20;;;;;;;-0.13;76.29;102199.59;1703537;77;21024;-87
2020/12/03 05:42:37;;;;;;;30.70;15.20;;;;;;;-0.19;76.64;102200.81;1765594;80;20953;-88
2020/12/03 05:45:13;;;;;;;31.73;16.70;;;;;;;-0.19;76.75;102199.95;1764981;80;21001;-85
2020/12/03 05:47:50;;;;;;;28.65;17.52;;;;;;;-0.19;76.86;102202.10;1764648;80;21383;-89
2020/12/03 05:50:38;;;;;;;35.08;17.82;;;;;;;-0.19;77.05;102194.37;1763029;77;20949;-88
2020/12/03 05:53:19;;;;;;;28.50;14.85;;;;;;;-0.16;77.03;102193.09;1764993;79;20966;-88
2020/12/03 05:56:14;;;;;;;31.40;17.37;;;;;;;-0.15;77.04;102200.00;1794793;77;20899;-87
2020/12/03 05:58:42;;;;;;;33.85;18.30;;;;;;;-0.14;77.19;102207.30;1765320;77;21005;-87
2020/12/03 06:01:18;;;;;;;33.13;17.50;;;;;;;-0.13;77.22;102204.75;1793821;77;21020;-89
2020/12/03 06:04:10;;;;;;;35.98;18.45;;;;;;;-0.09;77.13;102217.23;1765155;79;20974;-90
2020/12/03 06:06:56;;;;;;;35.15;16.23;;;;;;;-0.07;77.10;102213.84;1744809;79;20918;-87
2020/12/03 06:10:15;;;;;;;36.25;19.00;;;;;;;-0.03;77.00;102212.14;1764846;78;20911;-87
2020/12/03 06:13:06;;;;;;;42.95;20.65;;;;;;;-0.01;77.04;102207.43;1765527;79;21124;-84
2020/12/03 06:15:53;;;;;;;43.95;21.37;;;;;;;0.05;76.96;102207.07;1765640;80;21666;-87
2020/12/03 06:18:57;;;;;;;40.60;19.82;;;;;;;0.11;76.94;102213.55;1717567;80;21057;-87
2020/12/03 06:21:33;;;;;;;48.30;20.40;;;;;;;0.14;76.79;102200.70;1756790;80;21025;-84
2020/12/03 06:24:22;;;;;;;37.95;17.92;;;;;;;0.16;76.66;102208.02;1763016;80;21653;-86
2020/12/03 06:27:29;;;;;;;36.58;17.98;;;;;;;0.16;76.64;102206.30;1792538;78;20926;-86
2020/12/03 06:30:23;;;;;;;45.33;21.30;;;;;;;0.14;76.68;102203.28;1763025;80;21096;-86
2020/12/03 06:33:31;;;;;;;39.45;20.32;;;;;;;0.14;76.82;102202.84;1762382;80;20977;-86
2020/12/03 06:36:13;;;;;;;40.90;19.00;;;;;;;0.19;76.68;102207.61;1762556;80;21045;-85
2020/12/03 06:39:09;;;;;;;36.85;20.97;;;;;;;0.21;76.49;102203.77;1786466;78;20934;-90
2020/12/03 06:42:10;;;;;;;34.90;20.65;;;;;;;0.20;76.17;102209.35;1793413;78;21029;-89
2020/12/03 06:44:58;;;;;;;35.95;19.90;;;;;;;0.14;76.36;102205.42;1792036;78;21365;-91
2020/12/03 06:47:56;;;;;;;36.93;20.27;;;;;;;0.15;76.29;102201.98;1767402;78;20950;-92
2020/12/03 06:50:48;;;;;;;42.78;20.12;;;;;;;0.14;76.28;102207.14;1822999;78;20962;-92
2020/12/03 06:53:58;;;;;;;35.23;17.77;;;;;;;0.14;76.38;102200.70;1730353;81;21068;-85
2020/12/03 06:57:23;;;;;;;31.55;16.67;;;;;;;0.19;76.21;102208.89;1705879;81;21617;-88
2020/12/03 07:00:30;;;;;;;31.65;15.95;;;;;;;0.22;75.95;102217.08;1729720;81;21488;-86
2020/12/03 07:03:42;;;;;;;32.90;15.60;;;;;;;0.19;75.88;102216.64;1729470;81;20969;-89
2020/12/03 07:07:04;;;;;;;34.30;18.85;;;;;;;0.23;75.69;102222.70;1729732;81;20962;-88
2020/12/03 07:09:57;;;;;;;46.00;21.75;;;;;;;0.28;75.74;102221.02;1730193;81;20938;-91
2020/12/03 07:13:09;;;;;;;40.08;20.90;;;;;;;0.37;75.60;102226.68;1728954;81;20974;-84
2020/12/03 07:16:33;;;;;;;52.03;22.22;;;;;;;0.44;75.46;102225.02;1728519;81;21037;-83
2020/12/03 07:19:19;;;;;;;36.53;17.73;;;;;;;0.48;75.25;102226.77;1728939;81;21518;-81
2020/12/03 07:22:23;;;;;;;42.50;23.15;;;;;;;0.47;75.20;102245.27;1756283;81;20970;-79
2020/12/03 07:24:53;;;;;;;40.12;22.20;;;;;;;0.46;75.20;102236.22;1732227;81;20962;-82
2020/12/03 07:27:41;;;;;;;45.58;22.27;;;;;;;0.52;75.19;102239.70;1725152;81;20954;-82
2020/12/03 07:30:22;;;;;;;41.18;21.23;;;;;;;0.58;74.91;102240.19;1753880;78;20972;-84
2020/12/03 07:32:54;;;;;;;48.05;23.22;;;;;;;0.65;74.94;102243.69;1791288;78;20989;-82
2020/12/03 07:36:08;;;;;;;33.80;19.10;;;;;;;0.74;74.83;102247.19;1791321;78;21396;-82
2020/12/03 07:38:41;;;;;;;33.42;18.32;;;;;;;0.84;74.25;102248.09;1789334;79;21025;-87
2020/12/03 07:41:16;;;;;;;38.65;19.30;;;;;;;0.92;73.74;102250.75;1815268;78;21428;-86
2020/12/03 07:43:46;;;;;;;40.50;20.88;;;;;;;0.94;73.65;102250.33;1777720;77;21647;-81
2020/12/03 07:46:31;;;;;;;43.80;20.77;;;;;;;1.06;73.65;102254.27;1767392;80;21023;-79
2020/12/03 07:49:00;;;;;;;44.50;22.58;;;;;;;1.12;72.98;102253.02;1746489;81;28025;-77
2020/12/03 07:51:29;;;;;;;41.83;20.80;;;;;;;1.12;72.88;102246.55;1747308;81;20953;-81
2020/12/03 07:54:19;;;;;;;46.70;22.65;;;;;;;1.09;72.81;102250.83;1769285;80;20914;-76
2020/12/03 07:56:49;;;;;;;52.17;23.27;;;;;;;1.11;72.72;102242.27;1769744;80;21156;-77
2020/12/03 07:59:29;;;;;;;47.43;23.98;;;;;;;1.16;72.78;102249.59;1767748;78;20942;-81
2020/12/03 08:02:00;;;;;;;51.33;24.18;;;;;;;1.22;72.62;102248.75;1767698;80;20966;-78
2020/12/03 08:04:38;;;;;;;46.98;21.68;;;;;;;1.23;72.57;102247.91;1767154;80;20962;-77
2020/12/03 08:07:14;;;;;;;42.40;21.50;;;;;;;1.22;72.20;102238.01;1767029;80;20949;-80
2020/12/03 08:09:46;;;;;;;42.62;21.12;;;;;;;1.26;72.26;102231.11;1793011;79;21447;-80
2020/12/03 08:12:19;;;;;;;51.55;24.63;;;;;;;1.29;71.89;102236.31;1766208;80;21022;-79
2020/12/03 08:14:52;;;;;;;38.53;22.20;;;;;;;1.23;71.89;102235.84;1766378;80;20985;-79
2020/12/03 08:17:28;;;;;;;38.13;21.57;;;;;;;1.22;72.03;102230.25;1766344;80;20961;-79
2020/12/03 08:20:10;;;;;;;37.55;22.65;;;;;;;1.22;72.04;102234.13;1766423;80;20918;-81
2020/12/03 08:22:49;;;;;;;35.30;21.62;;;;;;;1.18;71.79;102223.34;1766530;79;21949;-80
2020/12/03 08:25:30;;;;;;;44.75;21.52;;;;;;;1.19;72.02;102222.91;1766143;79;21131;-80
2020/12/03 08:28:04;;;;;;;36.58;18.07;;;;;;;1.23;72.15;102215.61;1793029;79;20946;-79
2020/12/03 08:30:38;;;;;;;30.97;17.65;;;;;;;1.24;71.76;102216.03;1793102;78;21005;-81
2020/12/03 08:33:15;;;;;;;32.10;18.95;;;;;;;1.20;71.95;102209.11;1793143;79;21367;-80
2020/12/03 08:35:57;;;;;;;31.40;18.02;;;;;;;1.27;72.02;102226.40;1766251;80;21004;-80
2020/12/03 08:38:32;;;;;;;34.85;21.20;;;;;;;1.31;71.65;102228.55;1766250;80;21115;-82
2020/12/03 08:41:08;;;;;;;36.88;19.42;;;;;;;1.27;71.68;102227.69;1766386;80;21311;-81
2020/12/03 08:43:33;;;;;;;43.35;22.32;;;;;;;1.29;71.76;102223.80;1756076;81;21039;-81
2020/12/03 08:46:08;;;;;;;44.83;23.45;;;;;;;1.30;71.78;102222.95;1699765;80;21236;-81
2020/12/03 08:48:36;;;;;;;52.43;27.00;;;;;;;1.30;71.87;102226.41;1694325;83;21903;-80
2020/12/03 08:51:09;;;;;;;51.45;26.00;;;;;;;1.29;71.90;102225.09;1694117;83;20973;-79
2020/12/03 08:53:39;;;;;;;44.65;24.47;;;;;;;1.33;72.00;102222.52;1719751;82;20980;-78
2020/12/03 08:56:27;;;;;;;49.50;26.07;;;;;;;1.42;71.82;102228.16;1719590;82;21000;-81
2020/12/03 08:59:07;;;;;;;45.88;24.02;;;;;;;1.43;71.79;102226.03;1719947;82;20960;-80
2020/12/03 09:01:41;;;;;;;33.35;18.57;;;;;;;1.41;71.68;102216.11;1720155;82;22806;-80
2020/12/03 09:04:10;;;;;;;;;;;;;;;1.39;71.58;102217.39;1722700;82;21059;-81
2020/12/03 09:06:48;;;;;;;49.08;22.15;;;;;;;1.32;71.71;102216.94;1689585;84;20140;-79
2020/12/03 09:09:20;;;;;;;39.42;21.97;;;;;;;1.31;71.90;102222.98;1694188;83;20953;-80
2020/12/03 09:11:48;;;;;;;36.03;21.35;;;;;;;1.30;71.85;102217.36;1719935;82;21377;-79
2020/12/03 09:14:18;;;;;;;47.08;23.25;;;;;;;1.24;72.08;102210.45;1719937;82;20994;-80
2020/12/03 09:16:51;;;;;;;36.28;20.85;;;;;;;1.25;72.11;102206.14;1720013;82;20935;-79
2020/12/03 09:19:24;;;;;;;42.13;21.90;;;;;;;1.28;72.22;102211.31;1719972;82;20959;-80
2020/12/03 09:21:52;;;;;;;42.95;22.25;;;;;;;1.35;72.42;102213.05;1720111;82;21054;-80
2020/12/03 09:24:22;;;;;;;44.27;22.20;;;;;;;1.40;72.23;102207.91;1720080;82;20974;-80
2020/12/03 09:26:53;;;;;;;38.73;21.40;;;;;;;1.40;72.21;102212.67;1696775;82;21134;-81
2020/12/03 09:29:21;;;;;;;45.70;22.70;;;;;;;1.47;72.22;102216.55;1719937;82;21046;-80
2020/12/03 09:32:07;;;;;;;41.23;21.40;;;;;;;1.52;71.91;102217.45;1716549;82;20974;-83
2020/12/03 09:34:36;;;;;;;38.90;20.62;;;;;;;1.53;71.97;102214.84;1719799;82;20971;-82
2020/12/03 09:37:04;;;;;;;43.68;22.05;;;;;;;1.60;72.11;102210.55;1720181;82;21018;-82
2020/12/03 09:39:35;;;;;;;39.85;23.07;;;;;;;1.67;72.11;102207.15;1720063;81;21042;-81
2020/12/03 09:42:05;;;;;;;43.35;23.30;;;;;;;1.77;71.88;102205.44;1719887;82;20990;-84
2020/12/03 09:44:36;;;;;;;46.42;25.25;;;;;;;1.78;71.39;102205.45;1720112;82;20951;-81
2020/12/03 09:47:13;;;;;;;40.70;21.27;;;;;;;1.74;71.28;102201.12;1719592;82;20959;-82
2020/12/03 09:49:44;;;;;;;43.75;21.25;;;;;;;1.71;71.29;102195.07;1720119;82;21030;-81
2020/12/03 09:52:14;;;;;;;36.28;19.32;;;;;;;1.66;71.49;102193.77;1719794;82;21220;-84
2020/12/03 09:54:45;;;;;;;37.20;18.90;;;;;;;1.68;71.40;102184.73;1719626;82;20974;-80
2020/12/03 09:57:14;;;;;;;35.33;17.73;;;;;;;1.64;71.21;102176.09;1741165;81;21595;-79
2020/12/03 09:59:43;;;;;;;32.73;18.70;;;;;;;1.58;71.35;102183.42;1720163;82;20967;-83
2020/12/03 10:02:18;;;;;;;37.53;22.37;;;;;;;1.55;71.30;102179.52;1719006;82;21029;-80
2020/12/03 10:05:13;;;;;;;35.65;19.65;;;;;;;1.50;71.31;102177.36;1720126;82;21385;-80
2020/12/03 10:08:03;;;;;;;38.40;23.00;;;;;;;1.46;71.43;102178.20;1719830;82;21889;-79
2020/12/03 10:11:03;;;;;;;37.98;20.12;;;;;;;1.44;71.58;102188.53;1693322;82;21006;-78
2020/12/03 10:14:09;;;;;;;31.73;18.77;;;;;;;1.49;71.59;102175.65;1719835;82;21049;-80
2020/12/03 10:16:38;;;;;;;35.03;20.17;;;;;;;1.53;71.49;102172.63;1720253;82;20923;-80
2020/12/03 10:19:11;;;;;;;44.83;23.85;;;;;;;1.53;71.55;102165.72;1720151;82;21388;-83
2020/12/03 10:21:48;;;;;;;43.33;24.35;;;;;;;1.50;71.55;102154.09;1720033;82;21062;-81
2020/12/03 10:24:20;;;;;;;45.17;23.30;;;;;;;1.48;71.74;102150.64;1720193;82;21373;-80
2020/12/03 10:27:11;;;;;;;45.30;24.57;;;;;;;1.47;71.78;102157.98;1719830;82;21149;-79
2020/12/03 10:29:45;;;;;;;44.85;23.35;;;;;;;1.42;71.84;102152.80;1711815;82;20984;-80
2020/12/03 10:32:15;;;;;;;50.50;26.73;;;;;;;1.39;72.07;102147.60;1720491;82;22240;-81
2020/12/03 10:34:48;;;;;;;44.13;23.83;;;;;;;1.39;72.37;102146.75;1720130;82;21037;-80
2020/12/03 10:37:35;;;;;;;54.48;27.15;;;;;;;1.45;72.24;102155.81;1720197;82;21011;-80
2020/12/03 10:40:20;;;;;;;50.43;25.62;;;;;;;1.44;72.27;102152.34;1720018;82;21058;-81
2020/12/03 10:42:52;;;;;;;60.55;28.02;;;;;;;1.45;72.31;102144.19;1720204;82;21574;-81
2020/12/03 10:45:26;;;;;;;56.18;28.30;;;;;;;1.46;72.15;102145.89;1719943;82;22335;-81
2020/12/03 10:48:20;;;;;;;55.30;28.67;;;;;;;1.44;72.12;102143.73;1720166;82;20974;-82
2020/12/03 10:51:13;;;;;;;48.17;25.95;;;;;;;1.42;72.35;102148.03;1720020;82;21439;-80
2020/12/03 10:53:50;;;;;;;56.75;26.30;;;;;;;1.35;72.22;102143.28;1760936;80;21107;-78
2020/12/03 10:56:27;;;;;;;56.73;28.17;;;;;;;1.35;72.32;102139.84;1757207;80;20923;-78
2020/12/03 10:59:10;;;;;;;50.98;25.77;;;;;;;1.38;72.31;102137.25;1730470;80;21428;-77
2020/12/03 11:01:36;;;;;;;53.15;26.90;;;;;;;1.39;72.32;102138.98;1755227;80;20985;-78
2020/12/03 11:04:10;;;;;;;52.33;27.93;;;;;;;1.37;72.49;102131.22;1755130;80;20918;-81
2020/12/03 11:06:38;;;;;;;59.55;28.38;;;;;;;1.39;72.49;102137.70;1754577;80;21025;-77
2020/12/03 11:09:06;;;;;;;54.60;24.12;;;;;;;1.38;72.33;102135.55;1755335;80;21840;-78
2020/12/03 11:11:36;;;;;;;58.92;26.37;;;;;;;1.37;72.15;102139.41;1754761;80;21177;-77
2020/12/03 11:14:10;;;;;;;60.25;24.65;;;;;;;1.29;72.26;102137.23;1754380;80;20958;-79
2020/12/03 11:16:48;;;;;;;59.42;26.85;;;;;;;1.26;72.37;102136.80;1781271;79;21034;-77
2020/12/03 11:19:18;;;;;;;57.78;24.57;;;;;;;1.20;72.52;102126.44;1751647;80;20962;-79
2020/12/03 11:21:56;;;;;;;46.13;22.60;;;;;;;1.21;72.54;102128.17;1755335;80;21042;-79
2020/12/03 11:24:30;;;;;;;49.88;25.35;;;;;;;1.24;72.51;102131.64;1754542;80;21171;-77
2020/12/03 11:26:58;;;;;;;54.60;24.70;;;;;;;1.27;72.60;102132.48;1754961;80;21033;-78
2020/12/03 11:29:27;;;;;;;48.20;22.00;;;;;;;1.28;72.59;102138.09;1754162;80;21013;-78
2020/12/03 11:31:57;;;;;;;48.25;22.65;;;;;;;1.29;72.62;102141.10;1755199;80;21539;-81
2020/12/03 11:34:38;;;;;;;50.35;27.98;;;;;;;1.29;72.54;102141.99;1754829;80;21025;-79
2020/12/03 11:37:08;;;;;;;44.35;25.30;;;;;;;1.34;72.50;102138.13;1781084;79;22629;-80
2020/12/03 11:39:35;;;;;;;43.73;25.40;;;;;;;1.36;72.34;102146.75;1754459;80;21065;-82
2020/12/03 11:48:06;;;;;;;55.17;26.55;;;;;;;1.31;72.31;102140.28;1754572;80;21022;-78
2020/12/03 11:50:17;;;;;;;62.98;28.85;;;;;;;1.26;72.48;102134.20;1750983;80;21452;-79
2020/12/03 11:52:45;;;;;;;65.90;29.55;;;;;;;1.26;72.75;102141.11;1739479;81;20973;-83
2020/12/03 11:55:24;;;;;;;64.67;33.42;;;;;;;1.26;72.81;102143.25;1753090;80;20950;-77
2020/12/03 11:58:04;;;;;;;51.25;27.35;;;;;;;1.26;72.87;102138.09;1753514;80;21029;-79
2020/12/03 12:00:32;;;;;;;50.15;28.00;;;;;;;1.25;72.85;102140.25;1717603;80;20954;-76
2020/12/03 12:03:14;;;;;;;49.70;27.58;;;;;;;1.25;72.92;102141.55;1752941;80;20989;-77